Time;durP1;ratioP1;P1;durP2;ratioP2;P2;SDS_P1;SDS_P2;PMS_P1;PMS_P2;Temp;Humidity;BMP_temperature;BMP_pressure;BME280_temperature;BME280_humidity;BME280_pressure;Samples;Min_cycle;Max_cycle;Signal;HPM_P1;HPM_P2
2022/02/22 00:07:22;;;;;;;2.22;0.80;;;;;;;;;;19815969;30;20062;-57
2022/02/22 00:17:23;;;;;;;1.90;1.17;;;;;;;;;;19815148;30;20051;-57
2022/02/22 00:27:25;;;;;;;2.92;0.90;;;;;;;;;;19815490;29;20059;-58
2022/02/22 00:37:28;;;;;;;2.20;1.10;;;;;;;;;;19814931;30;20055;-57
2022/02/22 00:47:30;;;;;;;2.63;0.98;;;;;;;;;;19814932;30;20143;-56
2022/02/22 00:57:31;;;;;;;2.72;0.90;;;;;;;;;;19814161;30;20055;-57
2022/02/22 01:07:33;;;;;;;1.95;0.93;;;;;;;;;;19813810;30;20235;-58
2022/02/22 01:17:35;;;;;;;2.70;1.10;;;;;;;;;;19813626;30;20051;-56
2022/02/22 01:27:38;;;;;;;4.38;1.60;;;;;;;;;;19823007;29;20120;-57
2022/02/22 01:37:40;;;;;;;3.20;1.10;;;;;;;;;;19826838;30;20052;-58
2022/02/22 01:47:42;;;;;;;2.33;0.73;;;;;;;;;;19825533;30;20059;-60
2022/02/22 01:57:44;;;;;;;1.85;0.70;;;;;;;;;;19825710;30;20051;-56
2022/02/22 02:07:46;;;;;;;2.83;0.77;;;;;;;;;;19823986;30;20059;-57
2022/02/22 02:17:49;;;;;;;1.50;0.60;;;;;;;;;;19823425;30;20051;-57
2022/02/22 02:27:51;;;;;;;2.13;0.80;;;;;;;;;;19822058;30;20090;-54
2022/02/22 02:37:53;;;;;;;2.00;0.60;;;;;;;;;;19821189;29;20055;-56
2022/02/22 02:47:56;;;;;;;2.22;0.65;;;;;;;;;;19821152;30;20056;-57
2022/02/22 02:58:02;;;;;;;3.85;0.77;;;;;;;;;;19821215;30;20486;-57
2022/02/22 03:08:06;;;;;;;5.55;0.73;;;;;;;;;;19819559;30;20063;-56
2022/02/22 03:18:09;;;;;;;1.27;0.70;;;;;;;;;;19819095;30;20420;-57
2022/02/22 03:28:12;;;;;;;2.50;0.52;;;;;;;;;;19818268;29;20583;-57
2022/02/22 03:38:14;;;;;;;1.52;0.60;;;;;;;;;;19817504;30;20051;-57
2022/02/22 03:48:17;;;;;;;2.65;0.70;;;;;;;;;;19816087;29;20063;-56
2022/02/22 03:58:19;;;;;;;1.65;0.50;;;;;;;;;;19816506;30;20055;-56
2022/02/22 04:08:22;;;;;;;1.63;0.68;;;;;;;;;;19815938;30;20421;-56
2022/02/22 04:18:24;;;;;;;0.95;0.50;;;;;;;;;;19815237;30;20417;-57
2022/02/22 04:28:28;;;;;;;1.98;0.50;;;;;;;;;;19814394;30;20109;-57
2022/02/22 04:38:32;;;;;;;2.83;1.02;;;;;;;;;;19814607;30;20062;-57
2022/02/22 04:48:37;;;;;;;1.00;0.70;;;;;;;;;;19814410;30;20066;-56
2022/02/22 04:58:40;;;;;;;2.78;1.10;;;;;;;;;;19819621;29;20062;-59
2022/02/22 05:08:42;;;;;;;2.80;1.00;;;;;;;;;;19828339;30;20058;-58
2022/02/22 05:18:45;;;;;;;1.63;0.80;;;;;;;;;;19812081;30;20055;-58
2022/02/22 05:28:47;;;;;;;3.38;1.20;;;;;;;;;;19826884;29;20482;-58
2022/02/22 05:38:50;;;;;;;3.30;1.40;;;;;;;;;;19826620;30;20059;-58
2022/02/22 05:48:52;;;;;;;5.32;1.70;;;;;;;;;;19826000;30;20099;-54
2022/02/22 05:58:54;;;;;;;3.75;1.40;;;;;;;;;;19825106;30;20051;-55
2022/02/22 06:08:56;;;;;;;3.50;1.77;;;;;;;;;;19823890;29;20058;-54
2022/02/22 06:18:58;;;;;;;2.50;1.20;;;;;;;;;;19823397;30;20154;-56
2022/02/22 06:29:00;;;;;;;3.13;1.50;;;;;;;;;;19822555;29;20142;-57
2022/02/22 06:39:02;;;;;;;5.30;1.58;;;;;;;;;;19822242;30;20126;-58
2022/02/22 06:49:04;;;;;;;5.65;1.30;;;;;;;;;;19821704;30;20387;-57
2022/02/22 06:59:06;;;;;;;4.10;1.55;;;;;;;;;;19820667;30;20055;-55
2022/02/22 07:09:08;;;;;;;2.65;1.13;;;;;;;;;;19820115;30;20051;-55
2022/02/22 07:19:10;;;;;;;5.60;1.48;;;;;;;;;;19818677;29;20093;-55
2022/02/22 07:29:11;;;;;;;6.47;1.55;;;;;;;;;;19817720;30;20059;-56
2022/02/22 07:39:13;;;;;;;7.93;1.83;;;;;;;;;;19818060;30;20129;-55
2022/02/22 07:49:15;;;;;;;6.88;2.10;;;;;;;;;;19816684;30;20059;-57
2022/02/22 07:59:17;;;;;;;9.35;3.67;;;;;;;;;;19816668;30;20509;-54
2022/02/22 08:09:18;;;;;;;10.85;3.13;;;;;;;;;;19815523;30;20116;-56
2022/02/22 08:19:20;;;;;;;13.20;3.05;;;;;;;;;;19815255;30;20104;-57
2022/02/22 08:29:23;;;;;;;11.68;4.25;;;;;;;;;;19814404;30;20116;-58
2022/02/22 08:39:25;;;;;;;6.97;2.90;;;;;;;;;;19838701;29;20063;-58
2022/02/22 08:49:27;;;;;;;7.80;3.13;;;;;;;;;;19838818;30;20134;-59
2022/02/22 08:59:29;;;;;;;10.45;3.63;;;;;;;;;;19838653;30;20130;-55
2022/02/22 09:09:31;;;;;;;10.95;3.60;;;;;;;;;;19838507;30;20059;-55
2022/02/22 09:19:33;;;;;;;8.55;2.20;;;;;;;;;;19838954;30;20132;-57
2022/02/22 09:29:34;;;;;;;5.10;1.98;;;;;;;;;;19837782;30;20059;-58
2022/02/22 09:39:38;;;;;;;7.78;2.65;;;;;;;;;;19838421;30;20059;-58
2022/02/22 09:49:40;;;;;;;4.78;2.63;;;;;;;;;;19828370;29;20389;-58
2022/02/22 09:59:43;;;;;;;6.57;2.45;;;;;;;;;;19824508;30;20051;-57
2022/02/22 10:10:02;;;;;;;6.88;2.10;;;;;;;;;;19823906;30;20059;-57
2022/02/22 10:20:05;;;;;;;6.95;1.73;;;;;;;;;;19823364;30;20109;-58
2022/02/22 10:30:07;;;;;;;8.20;2.03;;;;;;;;;;19822254;29;20067;-58
2022/02/22 10:40:10;;;;;;;4.72;1.48;;;;;;;;;;19819073;30;20067;-58
2022/02/22 10:50:12;;;;;;;4.90;1.20;;;;;;;;;;19808775;30;20077;-62
2022/02/22 11:00:14;;;;;;;3.72;0.95;;;;;;;;;;19819047;29;20055;-62
2022/02/22 11:10:17;;;;;;;6.53;1.23;;;;;;;;;;19823656;29;20427;-57
2022/02/22 11:20:30;;;;;;;3.83;0.90;;;;;;;;;;19817302;30;20830;-63
2022/02/22 11:30:33;;;;;;;5.82;0.88;;;;;;;;;;19818233;30;20138;-65
2022/02/22 11:40:35;;;;;;;7.25;0.98;;;;;;;;;;19813806;30;20089;-59
2022/02/22 11:50:40;;;;;;;4.78;1.13;;;;;;;;;;19815428;30;20055;-60
2022/02/22 12:00:45;;;;;;;2.67;0.85;;;;;;;;;;19815600;30;20059;-70
2022/02/22 12:11:00;;;;;;;5.30;1.53;;;;;;;;;;19814507;30;20413;-60
2022/02/22 12:21:02;;;;;;;2.75;1.40;;;;;;;;;;19815600;30;20085;-63
2022/02/22 12:31:04;;;;;;;5.57;1.60;;;;;;;;;;19815487;30;20066;-56
2022/02/22 12:41:11;;;;;;;5.03;0.90;;;;;;;;;;19814573;30;20058;-65
2022/02/22 12:51:23;;;;;;;1.55;0.95;;;;;;;;;;19814335;30;20059;-69
2022/02/22 13:01:28;;;;;;;2.45;0.80;;;;;;;;;;19814193;30;20219;-56
2022/02/22 13:11:34;;;;;;;0.82;0.60;;;;;;;;;;19813639;30;20051;-58
2022/02/22 13:21:40;;;;;;;3.67;0.80;;;;;;;;;;19821301;29;20516;-61
2022/02/22 13:31:42;;;;;;;1.88;0.77;;;;;;;;;;19826272;30;20055;-57
2022/02/22 13:41:45;;;;;;;3.35;0.60;;;;;;;;;;19826200;30;20051;-55
2022/02/22 13:51:50;;;;;;;2.22;0.80;;;;;;;;;;19825041;30;20099;-61
2022/02/22 14:01:52;;;;;;;1.92;0.70;;;;;;;;;;19824873;30;20112;-63
2022/02/22 14:11:55;;;;;;;3.60;0.70;;;;;;;;;;19823583;30;20146;-63
2022/02/22 14:21:57;;;;;;;3.72;1.10;;;;;;;;;;19823574;30;20063;-61
2022/02/22 14:31:59;;;;;;;1.13;0.70;;;;;;;;;;19821381;29;20485;-56
2022/02/22 14:42:05;;;;;;;1.80;0.88;;;;;;;;;;19822031;30;20083;-63
2022/02/22 14:52:07;;;;;;;3.15;1.20;;;;;;;;;;19822922;30;20138;-59
2022/02/22 15:02:09;;;;;;;1.80;0.90;;;;;;;;;;19820761;30;20055;-61
2022/02/22 15:12:11;;;;;;;2.38;0.50;;;;;;;;;;19820289;30;20138;-61
2022/02/22 15:22:14;;;;;;;1.60;0.60;;;;;;;;;;19819296;30;20059;-55
2022/02/22 15:32:16;;;;;;;2.17;0.70;;;;;;;;;;19817998;30;20116;-58
2022/02/22 15:42:18;;;;;;;1.90;0.60;;;;;;;;;;19821617;30;20055;-55
2022/02/22 15:52:20;;;;;;;2.63;0.60;;;;;;;;;;19816794;30;20142;-57
2022/02/22 16:02:22;;;;;;;1.58;0.50;;;;;;;;;;19816057;30;20059;-57
2022/02/22 16:12:24;;;;;;;4.07;0.60;;;;;;;;;;19815685;30;20127;-59
2022/02/22 16:22:26;;;;;;;2.10;0.63;;;;;;;;;;19815307;30;20073;-56
2022/02/22 16:32:29;;;;;;;4.63;1.23;;;;;;;;;;19814391;30;20429;-55
2022/02/22 16:42:32;;;;;;;;;;;;;;;;;;19814359;30;20134;-56
2022/02/22 16:52:35;;;;;;;2.83;0.80;;;;;;;;;;19816626;29;19929;-57
2022/02/22 17:02:37;;;;;;;1.65;0.90;;;;;;;;;;19828259;30;20059;-55
2022/02/22 17:12:44;;;;;;;3.17;0.70;;;;;;;;;;19827668;30;20051;-57
2022/02/22 17:22:47;;;;;;;4.03;1.00;;;;;;;;;;19827207;29;20059;-57
2022/02/22 17:32:49;;;;;;;4.40;1.42;;;;;;;;;;19826400;30;20059;-60
2022/02/22 17:42:51;;;;;;;2.63;1.08;;;;;;;;;;19824911;30;20055;-55
2022/02/22 17:52:53;;;;;;;2.30;0.93;;;;;;;;;;19826108;29;20417;-62
2022/02/22 18:02:56;;;;;;;4.65;1.52;;;;;;;;;;19823620;29;20057;-60
2022/02/22 18:12:58;;;;;;;3.83;1.70;;;;;;;;;;19823379;30;20059;-55
2022/02/22 18:23:01;;;;;;;2.92;1.52;;;;;;;;;;19822764;30;20158;-56
2022/02/22 18:33:03;;;;;;;3.25;1.60;;;;;;;;;;19822178;30;20063;-56
2022/02/22 18:43:05;;;;;;;4.13;1.90;;;;;;;;;;19821745;30;20120;-56
2022/02/22 18:53:07;;;;;;;4.70;2.10;;;;;;;;;;19820279;30;20055;-55
2022/02/22 19:03:09;;;;;;;3.05;1.40;;;;;;;;;;19820256;30;20521;-57
2022/02/22 19:13:11;;;;;;;6.38;1.27;;;;;;;;;;19819798;30;20349;-57
2022/02/22 19:23:13;;;;;;;5.25;1.75;;;;;;;;;;19818432;29;20055;-62
2022/02/22 19:33:15;;;;;;;6.70;1.70;;;;;;;;;;19817433;30;20080;-59
2022/02/22 19:43:18;;;;;;;2.63;1.60;;;;;;;;;;19817619;30;20062;-57
2022/02/22 19:53:20;;;;;;;2.97;1.58;;;;;;;;;;19817364;30;20051;-64
2022/02/22 20:03:22;;;;;;;3.55;1.67;;;;;;;;;;19817188;30;20059;-62
2022/02/22 20:13:24;;;;;;;4.55;2.15;;;;;;;;;;19815946;30;20058;-60
2022/02/22 20:23:26;;;;;;;6.00;2.05;;;;;;;;;;19816006;29;20409;-60
2022/02/22 20:33:28;;;;;;;3.75;1.83;;;;;;;;;;19815494;30;20059;-64
2022/02/22 20:43:32;;;;;;;4.95;1.58;;;;;;;;;;19815383;30;20101;-62
2022/02/22 20:53:34;;;;;;;3.67;1.80;;;;;;;;;;19814419;30;20459;-61
2022/02/22 21:03:36;;;;;;;3.45;1.90;;;;;;;;;;19797844;30;20059;-61
2022/02/22 21:13:38;;;;;;;4.80;2.10;;;;;;;;;;19814188;30;20082;-62
2022/02/22 21:23:41;;;;;;;4.95;2.83;;;;;;;;;;19797214;29;20473;-59
2022/02/22 21:33:45;;;;;;;7.13;3.30;;;;;;;;;;19814076;30;20124;-60
2022/02/22 21:43:47;;;;;;;7.10;2.10;;;;;;;;;;19821821;29;20058;-62
2022/02/22 21:53:49;;;;;;;4.53;2.60;;;;;;;;;;19825645;30;20070;-62
2022/02/22 22:03:51;;;;;;;8.27;3.10;;;;;;;;;;19825343;30;20051;-62
2022/02/22 22:13:53;;;;;;;7.05;2.95;;;;;;;;;;19824443;30;20063;-63
2022/02/22 22:23:57;;;;;;;9.43;2.90;;;;;;;;;;19823512;29;20051;-56
2022/02/22 22:33:59;;;;;;;4.70;2.10;;;;;;;;;;19822749;30;20055;-61
2022/02/22 22:44:01;;;;;;;6.07;2.72;;;;;;;;;;19822821;30;20074;-62
2022/02/22 22:54:03;;;;;;;5.38;2.85;;;;;;;;;;19820545;30;20063;-61
2022/02/22 23:04:05;;;;;;;7.07;3.22;;;;;;;;;;19804847;30;20055;-63
2022/02/22 23:14:07;;;;;;;5.22;2.33;;;;;;;;;;19820722;30;20557;-62
2022/02/22 23:24:10;;;;;;;5.22;1.98;;;;;;;;;;19818996;29;20502;-64
2022/02/22 23:34:14;;;;;;;6.63;3.10;;;;;;;;;;19819074;30;20098;-64
2022/02/22 23:44:16;;;;;;;7.07;2.70;;;;;;;;;;19818470;30;20486;-62
2022/02/22 23:54:19;;;;;;;8.32;3.03;;;;;;;;;;19817752;30;20487;-63
